Time;durP1;ratioP1;P1;durP2;ratioP2;P2;SDS_P1;SDS_P2;PMS_P1;PMS_P2;Temp;Humidity;BMP_temperature;BMP_pressure;BME280_temperature;BME280_humidity;BME280_pressure;Samples;Min_cycle;Max_cycle;Signal;HPM_P1;HPM_P2
2023/02/03 00:02:38;;;;;;;3.00;1.25;;;15.30;67.90;;;;;;10405495;28;20025;-56
2023/02/03 00:07:39;;;;;;;1.50;0.95;;;15.30;67.90;;;;;;10421153;28;20120;-55
2023/02/03 00:12:40;;;;;;;2.92;1.30;;;15.30;67.90;;;;;;10431918;28;20349;-54
2023/02/03 00:17:41;;;;;;;1.58;0.73;;;15.30;67.90;;;;;;10406047;28;20049;-54
2023/02/03 00:22:41;;;;;;;2.25;0.80;;;15.20;67.90;;;;;;10446073;28;20447;-56
2023/02/03 00:27:42;;;;;;;2.85;0.82;;;15.20;67.90;;;;;;10445395;28;20539;-58
2023/02/03 00:32:43;;;;;;;2.10;0.82;;;15.20;68.50;;;;;;10431161;28;20040;-56
2023/02/03 00:37:50;;;;;;;3.95;0.70;;;15.20;67.90;;;;;;10406335;28;20109;-53
2023/02/03 00:42:51;;;;;;;2.15;1.20;;;15.20;67.90;;;;;;10424667;28;20435;-54
2023/02/03 00:47:51;;;;;;;1.30;0.65;;;15.20;67.90;;;;;;10414572;28;20062;-56
2023/02/03 00:52:52;;;;;;;3.03;1.00;;;15.10;67.80;;;;;;10433862;28;20017;-55
2023/02/03 00:57:53;;;;;;;1.40;0.75;;;15.10;67.80;;;;;;10436324;28;20109;-55
2023/02/03 01:02:53;;;;;;;1.30;0.65;;;15.20;67.90;;;;;;10403546;28;20021;-55
2023/02/03 01:07:54;;;;;;;2.13;1.23;;;15.10;67.80;;;;;;10404150;28;20025;-56
2023/02/03 01:12:55;;;;;;;3.35;1.00;;;15.10;67.80;;;;;;10447161;28;20049;-56
2023/02/03 01:17:56;;;;;;;3.03;1.20;;;15.10;67.80;;;;;;10447688;28;20045;-55
2023/02/03 01:22:56;;;;;;;1.42;0.63;;;15.10;67.70;;;;;;10452791;28;20125;-55
2023/02/03 01:27:57;;;;;;;2.45;1.17;;;15.10;67.80;;;;;;10468667;28;20035;-55
2023/02/03 01:32:58;;;;;;;4.22;1.13;;;15.10;67.80;;;;;;10436671;28;20053;-55
2023/02/03 01:37:58;;;;;;;2.78;1.65;;;15.00;67.80;;;;;;10417918;28;20017;-54
2023/02/03 01:42:59;;;;;;;2.67;0.80;;;15.00;67.80;;;;;;10451946;28;20112;-56
2023/02/03 01:48:00;;;;;;;2.13;0.77;;;15.00;67.70;;;;;;10430821;28;20036;-54
2023/02/03 01:53:07;;;;;;;1.42;0.80;;;15.00;67.70;;;;;;10438342;28;20076;-55
2023/02/03 01:58:14;;;;;;;2.20;0.75;;;15.00;67.70;;;;;;10412398;28;20030;-55
2023/02/03 02:03:19;;;;;;;2.00;1.10;;;15.00;67.70;;;;;;10423846;28;20361;-56
2023/02/03 02:08:22;;;;;;;1.40;0.80;;;15.00;67.80;;;;;;10419493;28;20420;-55
2023/02/03 02:13:24;;;;;;;2.97;1.02;;;15.00;67.70;;;;;;10432838;28;20024;-55
2023/02/03 02:18:41;;;;;;;1.83;0.70;;;15.00;67.80;;;;;;10418180;28;20037;-55
2023/02/03 02:24:29;;;;;;;3.17;0.73;;;14.90;67.80;;;;;;10438769;28;20025;-55
2023/02/03 02:29:40;;;;;;;2.05;0.93;;;14.90;67.70;;;;;;10410264;28;20532;-56
2023/02/03 02:35:09;;;;;;;3.45;1.13;;;14.90;67.70;;;;;;10440408;28;20020;-55
2023/02/03 02:40:20;;;;;;;3.22;0.85;;;14.90;67.70;;;;;;10432507;28;20094;-54
2023/02/03 02:45:28;;;;;;;1.42;0.68;;;14.90;67.70;;;;;;10421426;28;20042;-55
2023/02/03 02:50:36;;;;;;;2.38;1.00;;;14.90;67.70;;;;;;10428536;28;20041;-55
2023/02/03 02:55:39;;;;;;;1.63;1.10;;;14.90;67.70;;;;;;10415836;28;20017;-56
2023/02/03 03:00:41;;;;;;;2.63;0.90;;;14.90;67.70;;;;;;10423131;28;20040;-55
2023/02/03 03:06:05;;;;;;;2.55;0.80;;;14.90;67.70;;;;;;10413946;28;20634;-55
2023/02/03 03:11:06;;;;;;;3.40;0.90;;;14.90;67.70;;;;;;10408407;28;20520;-57
2023/02/03 03:16:09;;;;;;;2.17;0.85;;;14.90;67.70;;;;;;10435120;28;20101;-55
2023/02/03 03:21:16;;;;;;;3.47;1.08;;;14.80;67.70;;;;;;10442475;28;20122;-56
2023/02/03 03:26:35;;;;;;;2.95;0.95;;;14.90;67.70;;;;;;10442976;28;20025;-55
2023/02/03 03:31:36;;;;;;;2.30;0.63;;;14.80;67.70;;;;;;10416408;28;20116;-56
2023/02/03 03:37:01;;;;;;;2.05;1.15;;;14.80;67.70;;;;;;10434318;28;20017;-54
2023/02/03 03:42:46;;;;;;;2.47;0.65;;;14.80;67.70;;;;;;10434397;28;20009;-55
2023/02/03 03:48:08;;;;;;;1.92;0.73;;;14.80;67.70;;;;;;10418607;28;20423;-54
2023/02/03 03:53:10;;;;;;;1.42;1.00;;;14.80;67.80;;;;;;10437394;28;20368;-54
2023/02/03 03:58:25;;;;;;;1.58;0.93;;;14.80;67.70;;;;;;10446646;28;20028;-55
2023/02/03 04:03:52;;;;;;;2.65;0.98;;;14.80;67.70;;;;;;10405763;28;20412;-56
2023/02/03 04:08:53;;;;;;;2.63;1.15;;;14.80;67.70;;;;;;10404755;28;20056;-56
2023/02/03 04:13:54;;;;;;;1.60;0.70;;;14.80;67.70;;;;;;10405307;28;20476;-56
2023/02/03 04:18:54;;;;;;;3.05;1.27;;;14.80;67.70;;;;;;10427722;28;20076;-54
2023/02/03 04:23:55;;;;;;;2.63;1.35;;;14.80;67.70;;;;;;10446150;28;20476;-55
2023/02/03 04:28:56;;;;;;;2.30;1.00;;;14.80;67.70;;;;;;10413509;28;20115;-55
2023/02/03 04:33:57;;;;;;;1.95;0.68;;;14.80;67.30;;;;;;10428510;28;20067;-55
2023/02/03 04:38:57;;;;;;;1.48;0.65;;;15.10;66.80;;;;;;10424773;28;20039;-55
2023/02/03 04:43:58;;;;;;;2.65;1.05;;;15.30;66.10;;;;;;10409880;28;20063;-56
2023/02/03 04:48:58;;;;;;;1.70;0.65;;;15.50;65.40;;;;;;10424138;28;20112;-56
2023/02/03 04:53:59;;;;;;;3.15;0.73;;;15.70;64.80;;;;;;10425499;28;20113;-56
2023/02/03 04:59:00;;;;;;;1.25;0.50;;;15.90;64.10;;;;;;10427235;28;20449;-56
2023/02/03 05:04:00;;;;;;;3.28;0.77;;;16.20;63.50;;;;;;10430407;28;20116;-56
2023/02/03 05:09:01;;;;;;;1.20;0.52;;;16.40;62.90;;;;;;10441736;28;20033;-53
2023/02/03 05:14:02;;;;;;;1.70;0.50;;;16.50;62.60;;;;;;10423820;28;20079;-55
2023/02/03 05:19:03;;;;;;;1.10;0.45;;;16.60;62.40;;;;;;10419171;28;20116;-54
2023/02/03 05:24:06;;;;;;;2.40;0.88;;;16.60;62.30;;;;;;10425498;28;20366;-55
2023/02/03 05:29:07;;;;;;;1.75;0.68;;;16.70;62.10;;;;;;10421184;28;20877;-55
2023/02/03 05:34:08;;;;;;;1.55;0.60;;;16.80;62.00;;;;;;10424452;28;20452;-57
2023/02/03 05:39:08;;;;;;;1.40;0.68;;;16.80;62.10;;;;;;10423177;28;20029;-56
2023/02/03 05:44:09;;;;;;;1.13;0.43;;;16.80;62.10;;;;;;10429940;28;20122;-55
2023/02/03 05:49:09;;;;;;;1.23;0.45;;;16.80;62.10;;;;;;10430428;28;20125;-55
2023/02/03 05:54:10;;;;;;;2.05;1.23;;;16.80;62.20;;;;;;10425352;28;20104;-56
2023/02/03 05:59:11;;;;;;;2.13;0.50;;;16.80;62.00;;;;;;10428388;28;20045;-56
2023/02/03 06:04:12;;;;;;;1.60;0.30;;;16.90;61.80;;;;;;10433702;28;20021;-56
2023/02/03 06:09:12;;;;;;;1.52;0.70;;;16.90;62.10;;;;;;10426225;28;20037;-53
2023/02/03 06:14:13;;;;;;;5.13;1.00;;;17.00;61.70;;;;;;10434984;28;20022;-53
2023/02/03 06:19:14;;;;;;;3.45;0.77;;;17.00;62.80;;;;;;10423029;28;20076;-55
2023/02/03 06:24:14;;;;;;;13.63;1.92;;;17.20;62.80;;;;;;10422823;28;20026;-54
2023/02/03 06:29:15;;;;;;;4.40;0.90;;;17.30;63.70;;;;;;10417491;28;20605;-55
2023/02/03 06:34:17;;;;;;;5.47;0.70;;;17.30;64.00;;;;;;10426822;28;20049;-54
2023/02/03 06:39:17;;;;;;;8.70;0.85;;;17.40;64.40;;;;;;10429202;28;20116;-54
2023/02/03 06:44:18;;;;;;;4.65;0.90;;;17.40;64.50;;;;;;10417391;28;20701;-53
2023/02/03 06:49:19;;;;;;;4.00;1.15;;;17.50;64.10;;;;;;10409963;28;20080;-55
2023/02/03 06:54:19;;;;;;;6.20;0.90;;;17.60;63.70;;;;;;10444286;28;20780;-53
2023/02/03 06:59:20;;;;;;;3.97;1.00;;;17.50;63.80;;;;;;10437774;28;20037;-53
2023/02/03 07:04:21;;;;;;;7.75;1.00;;;17.40;64.80;;;;;;10434557;28;20056;-52
2023/02/03 07:09:22;;;;;;;2.65;0.55;;;17.40;64.40;;;;;;10416415;28;20120;-54
2023/02/03 07:14:22;;;;;;;7.85;0.70;;;17.40;64.20;;;;;;10428107;28;20033;-56
2023/02/03 07:19:23;;;;;;;1.80;0.75;;;17.30;64.70;;;;;;10433983;28;20084;-55
2023/02/03 07:24:24;;;;;;;7.68;0.80;;;17.30;64.60;;;;;;10414679;28;20148;-57
2023/02/03 07:29:25;;;;;;;2.92;0.75;;;17.30;64.60;;;;;;10432205;28;20533;-57
2023/02/03 07:34:25;;;;;;;5.20;1.05;;;17.30;65.10;;;;;;10414938;28;20477;-57
2023/02/03 07:39:26;;;;;;;2.05;0.70;;;17.40;64.80;;;;;;10411933;28;20056;-56
2023/02/03 07:44:27;;;;;;;3.92;0.68;;;17.40;65.20;;;;;;10392542;28;20024;-58
2023/02/03 07:49:27;;;;;;;5.65;0.98;;;17.30;65.20;;;;;;10408522;28;20072;-55
2023/02/03 07:54:28;;;;;;;16.63;1.38;;;17.20;65.40;;;;;;10415967;28;20056;-59
2023/02/03 07:59:29;;;;;;;5.03;0.63;;;17.20;65.70;;;;;;10417722;28;20396;-54
2023/02/03 08:04:30;;;;;;;9.35;0.98;;;17.20;66.20;;;;;;10434534;28;20076;-56
2023/02/03 08:09:30;;;;;;;3.97;1.40;;;17.10;66.40;;;;;;10441095;28;20040;-56
2023/02/03 08:14:31;;;;;;;2.13;0.65;;;17.10;66.40;;;;;;10404706;28;20068;-53
2023/02/03 08:19:32;;;;;;;3.75;0.80;;;17.10;66.40;;;;;;10422030;28;20124;-54
2023/02/03 08:24:32;;;;;;;8.43;0.68;;;17.10;66.50;;;;;;10429193;28;20033;-53
2023/02/03 08:29:33;;;;;;;5.07;0.70;;;17.00;66.70;;;;;;10409630;28;20112;-54
2023/02/03 08:34:33;;;;;;;5.55;0.40;;;17.00;66.80;;;;;;10422390;28;20136;-55
2023/02/03 08:39:34;;;;;;;5.57;1.00;;;17.00;67.20;;;;;;10425562;28;20720;-56
2023/02/03 08:44:35;;;;;;;6.28;0.90;;;16.90;66.70;;;;;;10434426;28;20025;-56
2023/02/03 08:49:38;;;;;;;4.00;1.10;;;16.80;67.20;;;;;;10426220;28;20041;-56
2023/02/03 08:54:39;;;;;;;3.38;0.55;;;16.70;67.50;;;;;;10433273;28;20029;-56
2023/02/03 08:59:42;;;;;;;7.68;1.02;;;16.60;67.40;;;;;;10441922;28;20053;-56
2023/02/03 09:04:45;;;;;;;2.88;0.47;;;16.60;67.80;;;;;;10436324;28;20078;-56
2023/02/03 09:09:46;;;;;;;7.60;1.02;;;16.60;67.60;;;;;;10418292;28;20160;-58
2023/02/03 09:14:46;;;;;;;5.47;0.70;;;16.60;67.30;;;;;;10414686;28;20025;-57
2023/02/03 09:19:47;;;;;;;7.72;1.10;;;16.70;67.20;;;;;;10447424;28;20483;-57
2023/02/03 09:24:50;;;;;;;2.28;0.55;;;16.70;66.40;;;;;;10425424;28;20397;-57
2023/02/03 09:29:50;;;;;;;3.95;0.50;;;16.80;66.10;;;;;;10404413;28;20018;-57
2023/02/03 09:34:51;;;;;;;1.90;0.57;;;16.80;66.00;;;;;;10407704;28;20104;-57
2023/02/03 09:39:52;;;;;;;3.20;0.70;;;16.90;65.90;;;;;;10425457;28;20104;-58
2023/02/03 09:45:20;;;;;;;3.70;0.80;;;16.80;65.90;;;;;;10449046;28;20464;-58
2023/02/03 09:50:26;;;;;;;4.78;0.90;;;16.90;65.60;;;;;;10432774;28;20041;-58
2023/02/03 09:55:42;;;;;;;5.70;0.77;;;16.90;65.70;;;;;;10451446;28;20460;-57
2023/02/03 10:01:03;;;;;;;3.33;0.77;;;16.90;65.90;;;;;;10421477;28;20045;-57
2023/02/03 10:06:30;;;;;;;6.03;0.73;;;16.80;66.10;;;;;;10437240;28;20049;-58
2023/02/03 10:12:09;;;;;;;1.73;0.55;;;16.70;66.50;;;;;;10425010;28;20029;-56
2023/02/03 10:17:29;;;;;;;2.45;0.80;;;16.60;66.70;;;;;;10421219;28;20827;-57
2023/02/03 10:22:41;;;;;;;8.48;1.50;;;16.60;66.70;;;;;;10444507;28;20021;-57
2023/02/03 10:27:43;;;;;;;16.88;2.13;;;16.60;66.60;;;;;;10432282;28;20373;-59
2023/02/03 10:32:44;;;;;;;10.82;1.25;;;16.80;66.90;;;;;;10408988;28;20100;-58
2023/02/03 10:37:50;;;;;;;5.32;1.08;;;16.80;66.70;;;;;;10420116;28;20014;-58
2023/02/03 10:48:16;;;;;;;6.07;1.23;;;16.70;67.20;;;;;;10431887;28;20041;-57
2023/02/03 10:53:17;;;;;;;6.15;0.70;;;16.70;67.30;;;;;;10439326;28;20096;-58
2023/02/03 10:58:26;;;;;;;3.65;1.00;;;16.70;67.20;;;;;;10422304;28;20025;-57
2023/02/03 11:03:28;;;;;;;6.70;1.20;;;16.70;67.10;;;;;;10407904;28;20033;-58
2023/02/03 11:08:31;;;;;;;7.38;1.45;;;16.70;67.50;;;;;;10418312;28;20017;-57
2023/02/03 11:13:32;;;;;;;10.80;1.38;;;16.60;67.50;;;;;;10426353;28;20048;-56
2023/02/03 11:18:54;;;;;;;12.07;2.10;;;16.50;67.70;;;;;;10436971;28;20558;-57
2023/02/03 11:24:25;;;;;;;9.82;1.40;;;16.50;67.80;;;;;;10431214;28;20020;-57
2023/02/03 11:29:30;;;;;;;6.32;1.20;;;16.70;68.00;;;;;;10442490;28;20098;-56
2023/02/03 11:34:36;;;;;;;8.00;1.25;;;16.70;68.90;;;;;;10446407;28;20157;-56
2023/02/03 11:39:37;;;;;;;5.68;1.23;;;16.70;69.30;;;;;;10447457;28;20121;-57
2023/02/03 11:44:38;;;;;;;4.78;1.15;;;16.70;68.80;;;;;;10411191;28;20032;-58
2023/02/03 11:50:12;;;;;;;13.25;1.23;;;16.70;68.40;;;;;;10419559;28;20633;-57
2023/02/03 11:56:03;;;;;;;8.18;1.05;;;16.70;68.60;;;;;;10419004;28;20088;-57
2023/02/03 12:01:46;;;;;;;5.78;0.85;;;16.70;68.10;;;;;;10423800;28;20619;-57
2023/02/03 12:07:31;;;;;;;8.00;1.05;;;16.60;68.00;;;;;;10426937;28;20027;-55
2023/02/03 12:13:03;;;;;;;9.48;1.80;;;16.50;67.90;;;;;;10408740;28;20030;-56
2023/02/03 12:18:46;;;;;;;5.25;0.80;;;16.60;68.00;;;;;;10418460;28;20029;-55
2023/02/03 12:24:08;;;;;;;10.23;1.20;;;16.50;68.00;;;;;;10414370;28;20021;-56
2023/02/03 12:29:35;;;;;;;8.80;1.13;;;16.40;68.20;;;;;;10435520;28;20416;-57
2023/02/03 12:35:12;;;;;;;7.70;1.30;;;16.40;68.20;;;;;;10426156;28;20014;-57
2023/02/03 12:40:34;;;;;;;5.55;0.93;;;16.50;68.10;;;;;;10429424;28;20112;-56
2023/02/03 12:45:37;;;;;;;5.65;1.20;;;16.60;67.80;;;;;;10421278;28;20028;-56
2023/02/03 12:50:44;;;;;;;6.82;0.90;;;16.60;67.80;;;;;;10423578;28;20122;-57
2023/02/03 12:56:11;;;;;;;8.82;1.23;;;16.60;67.80;;;;;;10434195;28;20515;-55
2023/02/03 13:01:15;;;;;;;3.95;0.90;;;16.70;67.20;;;;;;10442632;28;20043;-57
2023/02/03 13:06:51;;;;;;;6.72;1.20;;;16.60;67.30;;;;;;10428125;28;20082;-56
2023/02/03 13:12:02;;;;;;;2.42;0.80;;;16.50;67.30;;;;;;10435341;28;20104;-58
2023/02/03 13:17:29;;;;;;;10.07;1.15;;;16.40;67.80;;;;;;10440988;28;20543;-57
2023/02/03 13:22:30;;;;;;;5.82;1.20;;;16.50;67.20;;;;;;10432053;28;20409;-58
2023/02/03 13:27:58;;;;;;;5.70;1.02;;;16.60;66.70;;;;;;10437311;28;20060;-57
2023/02/03 13:33:17;;;;;;;15.48;1.58;;;16.60;66.90;;;;;;10420601;28;20102;-57
2023/02/03 13:38:55;;;;;;;13.23;1.63;;;16.60;67.30;;;;;;10444637;28;20040;-55
2023/02/03 13:43:57;;;;;;;18.70;2.45;;;16.90;66.80;;;;;;10430196;28;20024;-57
2023/02/03 13:49:03;;;;;;;10.73;2.65;;;16.80;67.00;;;;;;10449079;28;20560;-55
2023/02/03 13:54:11;;;;;;;16.92;2.58;;;16.70;67.20;;;;;;10420666;28;20378;-56
2023/02/03 13:59:14;;;;;;;16.63;2.50;;;16.60;67.90;;;;;;10427198;28;20055;-57
2023/02/03 14:04:24;;;;;;;12.38;1.90;;;16.60;68.80;;;;;;10435627;28;20496;-56
2023/02/03 14:09:33;;;;;;;;;;;16.60;69.20;;;;;;10432145;28;20029;-57
2023/02/03 14:14:33;;;;;;;10.05;1.60;;;16.50;69.20;;;;;;10439334;28;19901;-57
2023/02/03 14:19:34;;;;;;;9.20;1.30;;;16.50;68.90;;;;;;10433645;28;20052;-56
2023/02/03 14:24:43;;;;;;;6.43;1.33;;;16.50;68.90;;;;;;10422515;28;20028;-57
2023/02/03 14:29:44;;;;;;;;;;;16.50;69.50;;;;;;10420958;28;20061;-56
2023/02/03 14:34:48;;;;;;;14.13;2.38;;;16.50;69.50;;;;;;10409210;28;19901;-56
2023/02/03 14:40:27;;;;;;;6.25;1.20;;;16.50;69.90;;;;;;10417174;28;20037;-56
2023/02/03 14:45:58;;;;;;;6.95;1.77;;;16.40;70.10;;;;;;10445102;28;20021;-55
2023/02/03 14:51:18;;;;;;;16.48;1.77;;;16.50;70.10;;;;;;10435655;28;20349;-55
2023/02/03 14:56:25;;;;;;;19.10;1.77;;;16.50;69.10;;;;;;10423524;28;20116;-56
2023/02/03 15:01:34;;;;;;;11.55;2.28;;;16.50;69.20;;;;;;10413619;28;20032;-58
2023/02/03 15:06:39;;;;;;;7.05;1.30;;;16.40;69.10;;;;;;10423652;28;20029;-60
2023/02/03 15:11:44;;;;;;;12.38;2.20;;;16.50;69.20;;;;;;10434656;28;20212;-57
2023/02/03 15:16:47;;;;;;;9.05;1.45;;;16.70;68.90;;;;;;10420840;28;20653;-57
2023/02/03 15:21:47;;;;;;;3.38;1.42;;;16.60;68.70;;;;;;10408731;28;20057;-57
2023/02/03 15:26:54;;;;;;;6.25;1.10;;;16.60;68.60;;;;;;10411672;28;20032;-56
2023/02/03 15:32:14;;;;;;;10.60;1.63;;;16.60;68.50;;;;;;10428541;28;20032;-54
2023/02/03 15:37:51;;;;;;;14.63;2.40;;;16.60;68.60;;;;;;10433296;28;20087;-56
2023/02/03 15:43:14;;;;;;;13.88;1.48;;;16.60;69.30;;;;;;10422961;28;20107;-56
2023/02/03 15:48:30;;;;;;;8.65;1.88;;;16.50;69.70;;;;;;10427463;28;20025;-57
2023/02/03 15:53:52;;;;;;;10.95;1.70;;;16.50;69.40;;;;;;10446228;28;20021;-57
2023/02/03 15:58:53;;;;;;;13.63;2.13;;;16.50;70.00;;;;;;10436120;28;20103;-55
2023/02/03 16:03:55;;;;;;;11.90;2.10;;;16.40;70.40;;;;;;10447432;28;20460;-56
2023/02/03 16:08:58;;;;;;;14.60;2.28;;;16.40;70.10;;;;;;10425401;28;20031;-56
2023/02/03 16:14:03;;;;;;;20.05;4.47;;;16.40;70.30;;;;;;10441012;28;20021;-58
2023/02/03 16:19:20;;;;;;;18.27;2.17;;;16.40;69.70;;;;;;10425454;28;20067;-55
2023/02/03 16:24:41;;;;;;;16.20;2.17;;;16.50;69.80;;;;;;10420313;28;20029;-57
2023/02/03 16:51:14;;;;;;;7.63;1.45;;;16.50;68.90;;;;;;10436928;28;20116;-58
2023/02/03 16:56:17;;;;;;;16.55;2.90;;;16.50;68.90;;;;;;10439388;28;20052;-57
2023/02/03 17:01:18;;;;;;;12.82;2.30;;;16.40;68.80;;;;;;10432750;28;20018;-58
2023/02/03 17:06:19;;;;;;;11.60;2.00;;;16.40;69.10;;;;;;10428235;28;20067;-58
2023/02/03 17:11:22;;;;;;;17.40;1.65;;;16.40;69.60;;;;;;10427464;28;20105;-58
2023/02/03 17:16:25;;;;;;;13.30;1.70;;;16.60;69.30;;;;;;10427587;28;20071;-56
2023/02/03 17:21:28;;;;;;;13.27;2.25;;;16.80;69.70;;;;;;10413888;28;20045;-58
2023/02/03 17:26:28;;;;;;;12.18;2.10;;;16.80;71.10;;;;;;10400941;28;20022;-56
2023/02/03 17:31:30;;;;;;;7.78;2.47;;;16.70;70.70;;;;;;10417599;28;20021;-57
2023/02/03 17:36:31;;;;;;;13.65;3.00;;;16.70;70.80;;;;;;10399468;28;20105;-58
2023/02/03 17:41:31;;;;;;;14.55;1.90;;;16.70;70.70;;;;;;10404606;28;20112;-56
2023/02/03 17:46:32;;;;;;;10.35;1.67;;;16.50;70.30;;;;;;10438817;28;20143;-59
2023/02/03 17:51:33;;;;;;;7.80;1.70;;;16.50;70.40;;;;;;10442465;28;20120;-60
2023/02/03 17:56:34;;;;;;;9.55;2.45;;;16.40;70.30;;;;;;10445892;28;20134;-60
2023/02/03 18:01:35;;;;;;;14.18;2.38;;;16.30;70.20;;;;;;10452182;28;20107;-58
2023/02/03 18:06:36;;;;;;;7.05;1.52;;;16.30;70.10;;;;;;10450283;28;20067;-59
2023/02/03 18:11:37;;;;;;;10.73;1.90;;;16.30;70.00;;;;;;10437519;28;20091;-60
2023/02/03 18:16:38;;;;;;;6.32;1.70;;;16.30;70.30;;;;;;10451303;28;20097;-58
2023/02/03 18:21:40;;;;;;;7.30;1.25;;;16.20;70.10;;;;;;10420283;28;20092;-60
2023/02/03 18:26:49;;;;;;;10.63;1.55;;;16.30;70.50;;;;;;10409891;28;20026;-59
2023/02/03 18:31:50;;;;;;;11.80;2.30;;;16.30;69.40;;;;;;10431512;28;20025;-60
2023/02/03 18:36:50;;;;;;;10.27;2.67;;;16.50;69.10;;;;;;10429089;28;20005;-58
2023/02/03 18:41:51;;;;;;;8.07;1.65;;;16.60;68.50;;;;;;10405156;28;20047;-59
2023/02/03 18:46:53;;;;;;;6.43;2.15;;;16.60;68.50;;;;;;10442203;28;20346;-59
2023/02/03 18:51:54;;;;;;;9.05;1.42;;;16.60;68.40;;;;;;10444658;28;20021;-57
2023/02/03 18:56:57;;;;;;;11.68;1.40;;;16.60;68.40;;;;;;10444122;28;20511;-56
2023/02/03 19:01:58;;;;;;;11.30;2.65;;;16.70;68.30;;;;;;10434763;28;20020;-57
2023/02/03 19:06:59;;;;;;;8.20;1.60;;;16.60;68.20;;;;;;10425691;28;20025;-57
2023/02/03 19:11:59;;;;;;;5.72;0.98;;;16.60;68.30;;;;;;10438016;28;20112;-59
2023/02/03 19:17:00;;;;;;;5.22;1.77;;;16.60;68.40;;;;;;10404634;28;20501;-57
2023/02/03 19:22:01;;;;;;;5.20;1.10;;;16.60;68.50;;;;;;10430472;28;20575;-59
2023/02/03 19:27:02;;;;;;;6.47;1.63;;;16.60;68.50;;;;;;10435704;28;20055;-59
2023/02/03 19:32:03;;;;;;;4.80;1.52;;;16.60;68.40;;;;;;10413495;28;20492;-59
2023/02/03 19:37:05;;;;;;;3.33;0.93;;;16.70;68.30;;;;;;10421489;28;20537;-57
2023/02/03 19:42:06;;;;;;;4.28;0.85;;;16.60;68.40;;;;;;10430868;28;20013;-57
2023/02/03 19:47:07;;;;;;;5.60;1.50;;;16.60;68.60;;;;;;10442706;28;20548;-56
2023/02/03 19:52:09;;;;;;;4.25;1.40;;;16.60;68.70;;;;;;10444466;28;20044;-57
2023/02/03 19:57:09;;;;;;;4.15;1.20;;;16.60;68.60;;;;;;10446795;28;20021;-58
2023/02/03 20:02:12;;;;;;;3.97;0.90;;;16.60;68.50;;;;;;10463516;28;20108;-58
2023/02/03 20:07:13;;;;;;;4.63;1.33;;;16.50;68.60;;;;;;10441260;28;20017;-58
2023/02/03 20:12:14;;;;;;;4.53;1.30;;;16.50;68.70;;;;;;10429274;28;20056;-58
2023/02/03 20:17:14;;;;;;;4.53;1.30;;;16.60;68.30;;;;;;10409917;28;20108;-58
2023/02/03 20:22:15;;;;;;;3.63;1.08;;;16.60;68.20;;;;;;10425264;28;20116;-58
2023/02/03 20:27:17;;;;;;;3.25;1.13;;;16.60;68.10;;;;;;10426854;28;20015;-59
2023/02/03 20:32:17;;;;;;;4.22;0.90;;;16.60;67.90;;;;;;10418036;28;20040;-57
2023/02/03 20:37:18;;;;;;;4.07;1.00;;;16.60;68.00;;;;;;10415630;28;20730;-58
2023/02/03 20:42:19;;;;;;;3.70;1.30;;;16.50;68.70;;;;;;10444844;28;20017;-57
2023/02/03 20:47:21;;;;;;;3.42;1.30;;;16.40;68.80;;;;;;10433266;28;20056;-58
2023/02/03 20:52:22;;;;;;;3.15;1.50;;;16.40;68.30;;;;;;10444840;28;20392;-58
2023/02/03 20:57:22;;;;;;;7.03;2.45;;;16.30;68.40;;;;;;10441871;28;20009;-58
2023/02/03 21:02:32;;;;;;;3.40;1.30;;;16.30;68.50;;;;;;10404254;28;20047;-59
2023/02/03 21:07:35;;;;;;;2.95;1.20;;;16.20;68.60;;;;;;10405269;28;20044;-57
2023/02/03 21:12:35;;;;;;;3.70;1.10;;;16.20;69.30;;;;;;10403435;28;20029;-58
2023/02/03 21:17:36;;;;;;;2.03;0.85;;;16.00;68.70;;;;;;10413026;28;20073;-58
2023/02/03 21:22:37;;;;;;;3.97;1.38;;;16.00;68.90;;;;;;10409164;28;20033;-58
2023/02/03 21:27:37;;;;;;;2.92;0.88;;;16.00;68.90;;;;;;10404425;28;20170;-59
2023/02/03 21:32:39;;;;;;;1.80;0.70;;;15.90;68.80;;;;;;10407784;28;20116;-58
2023/02/03 21:37:40;;;;;;;2.60;0.85;;;15.90;68.90;;;;;;10412736;28;20014;-58
2023/02/03 21:42:41;;;;;;;2.75;1.10;;;15.90;68.90;;;;;;10426009;28;20037;-57
2023/02/03 21:47:48;;;;;;;4.97;1.50;;;15.80;68.80;;;;;;10453398;28;20033;-58
2023/02/03 21:52:49;;;;;;;4.35;2.08;;;15.80;68.80;;;;;;10449701;28;20018;-57
2023/02/03 21:57:52;;;;;;;3.05;1.20;;;15.80;68.80;;;;;;10452525;28;20044;-56
2023/02/03 22:03:00;;;;;;;3.45;1.40;;;15.70;68.80;;;;;;10452760;28;20029;-58
2023/02/03 22:08:19;;;;;;;3.30;1.08;;;15.70;68.90;;;;;;10450878;28;20025;-57
2023/02/03 22:13:19;;;;;;;4.18;1.15;;;15.70;68.90;;;;;;10450923;28;20040;-57
2023/02/03 22:18:20;;;;;;;3.28;0.88;;;15.70;68.90;;;;;;10436431;28;20079;-58
2023/02/03 22:23:21;;;;;;;2.85;0.90;;;15.60;68.80;;;;;;10409546;28;20029;-59
2023/02/03 22:28:21;;;;;;;3.13;0.90;;;15.60;69.50;;;;;;10409609;28;20525;-57
2023/02/03 22:33:22;;;;;;;2.97;0.95;;;15.60;69.00;;;;;;10408580;28;20096;-58
2023/02/03 22:38:23;;;;;;;5.10;1.73;;;15.60;69.00;;;;;;10408806;28;20585;-58
2023/02/03 22:43:25;;;;;;;2.38;0.75;;;15.50;69.00;;;;;;10423873;28;20736;-57
2023/02/03 22:48:27;;;;;;;4.22;1.23;;;15.50;69.00;;;;;;10391650;28;20038;-59
2023/02/03 22:53:28;;;;;;;1.92;0.98;;;15.50;69.00;;;;;;10410117;28;20025;-58
2023/02/03 22:58:29;;;;;;;4.10;1.10;;;15.50;69.00;;;;;;10408313;28;20026;-59
2023/02/03 23:03:31;;;;;;;7.85;1.20;;;15.50;69.00;;;;;;10420280;28;20136;-57
2023/02/03 23:08:31;;;;;;;3.97;0.98;;;15.40;69.00;;;;;;10409336;28;20649;-56
2023/02/03 23:13:32;;;;;;;1.98;0.77;;;15.40;69.00;;;;;;10408804;28;20068;-58
2023/02/03 23:18:33;;;;;;;2.42;0.77;;;15.40;69.00;;;;;;10421647;28;20453;-59
2023/02/03 23:23:33;;;;;;;2.03;0.70;;;15.40;69.00;;;;;;10407287;28;20052;-57
2023/02/03 23:28:34;;;;;;;3.40;1.48;;;15.40;69.00;;;;;;10434415;28;20104;-58
2023/02/03 23:33:35;;;;;;;2.22;0.93;;;15.30;69.20;;;;;;10406346;28;20165;-57
2023/02/03 23:38:35;;;;;;;2.58;0.93;;;15.30;68.90;;;;;;10407784;28;20076;-57
2023/02/03 23:43:36;;;;;;;3.58;1.20;;;15.30;68.80;;;;;;10429080;28;20048;-58
2023/02/03 23:48:37;;;;;;;2.70;1.25;;;15.30;68.80;;;;;;10425167;28;20068;-57
2023/02/03 23:53:38;;;;;;;2.38;0.80;;;15.30;68.80;;;;;;10406974;28;20025;-58
2023/02/03 23:58:38;;;;;;;6.80;1.30;;;15.30;68.80;;;;;;10406015;28;20110;-59
